Time;durP1;ratioP1;P1;durP2;ratioP2;P2;SDS_P1;SDS_P2;PMS_P1;PMS_P2;Temp;Humidity;BMP_temperature;BMP_pressure;BME280_temperature;BME280_humidity;BME280_pressure;Samples;Min_cycle;Max_cycle;Signal;HPM_P1;HPM_P2
2023/12/03 00:00:54;;;;;;;13.40;11.63;;;;;21.40;100729.00;;;;2065954;28;20229;-55
2023/12/03 00:01:54;;;;;;;14.20;10.03;;;;;21.40;100728.00;;;;2069745;28;20217;-55
2023/12/03 00:02:55;;;;;;;15.13;10.30;;;;;21.40;100724.00;;;;2066296;28;20247;-54
2023/12/03 00:03:55;;;;;;;12.53;9.63;;;;;21.40;100726.00;;;;2067645;28;20280;-54
2023/12/03 00:04:55;;;;;;;11.80;9.50;;;;;21.40;100733.00;;;;2054234;28;20242;-55
2023/12/03 00:05:56;;;;;;;10.40;8.90;;;;;21.40;100731.00;;;;2068312;28;20213;-54
2023/12/03 00:06:56;;;;;;;14.53;9.23;;;;;21.40;100740.00;;;;2069689;28;20653;-53
2023/12/03 00:07:56;;;;;;;12.30;9.43;;;;;21.40;100733.00;;;;2068616;28;20699;-54
2023/12/03 00:08:58;;;;;;;12.67;9.50;;;;;21.40;100787.00;;;;2069110;28;21074;-54
2023/12/03 00:09:58;;;;;;;15.13;10.10;;;;;21.40;100737.00;;;;2059453;28;20260;-54
2023/12/03 00:10:59;;;;;;;12.73;9.57;;;;;21.40;100743.00;;;;2069020;28;20221;-54
2023/12/03 00:11:59;;;;;;;12.50;9.50;;;;;21.40;100750.00;;;;2062567;28;20223;-54
2023/12/03 00:12:59;;;;;;;11.03;9.10;;;;;21.40;100736.00;;;;2069953;28;20301;-54
2023/12/03 00:14:00;;;;;;;11.13;8.93;;;;;21.40;100773.00;;;;2071216;28;20694;-54
2023/12/03 00:15:00;;;;;;;12.50;10.30;;;;;21.40;100736.00;;;;2061165;28;20744;-55
2023/12/03 00:16:00;;;;;;;11.90;9.10;;;;;21.40;100741.00;;;;2069489;28;20210;-54
2023/12/03 00:17:01;;;;;;;12.83;9.50;;;;;21.40;100740.00;;;;2071329;28;20225;-54
2023/12/03 00:18:01;;;;;;;12.00;8.93;;;;;21.40;100736.00;;;;2069656;28;20668;-54
2023/12/03 00:19:01;;;;;;;12.27;9.13;;;;;21.40;100744.00;;;;2071279;28;20618;-55
2023/12/03 00:20:03;;;;;;;10.67;8.90;;;;;21.40;100739.00;;;;2060610;28;20639;-55
2023/12/03 00:21:03;;;;;;;11.75;8.60;;;;;21.30;100739.00;;;;2071202;28;20228;-55
2023/12/03 00:22:04;;;;;;;10.03;8.70;;;;;21.30;100739.00;;;;2071334;28;20683;-54
2023/12/03 00:23:04;;;;;;;11.43;9.33;;;;;21.30;100750.00;;;;2069224;28;20713;-54
2023/12/03 00:24:05;;;;;;;12.27;9.50;;;;;21.30;100736.00;;;;2069562;28;20702;-55
2023/12/03 00:25:06;;;;;;;12.93;8.23;;;;;21.30;100735.00;;;;2059421;28;20357;-55
2023/12/03 00:26:07;;;;;;;13.52;8.60;;;;;21.30;100730.00;;;;2070260;28;20216;-55
2023/12/03 00:27:07;;;;;;;10.93;8.43;;;;;21.30;100739.00;;;;2071116;28;20329;-55
2023/12/03 00:28:07;;;;;;;12.13;8.27;;;;;21.30;100734.00;;;;2069694;28;20599;-54
2023/12/03 00:29:08;;;;;;;11.40;9.23;;;;;21.30;100728.00;;;;2070821;28;20210;-54
2023/12/03 00:30:09;;;;;;;13.77;8.30;;;;;21.30;100724.00;;;;2060450;28;20223;-53
2023/12/03 00:31:09;;;;;;;11.95;8.65;;;;;21.30;100721.00;;;;2068084;28;20218;-54
2023/12/03 00:32:09;;;;;;;12.60;8.77;;;;;21.30;100723.00;;;;2070420;28;20653;-56
2023/12/03 00:33:10;;;;;;;10.53;9.10;;;;;21.30;100724.00;;;;2066166;28;20583;-56
2023/12/03 00:34:10;;;;;;;11.47;9.17;;;;;21.30;100727.00;;;;2065957;28;20762;-55
2023/12/03 00:35:11;;;;;;;11.37;8.50;;;;;21.30;100723.00;;;;2083320;28;20259;-55
2023/12/03 00:36:12;;;;;;;13.05;8.60;;;;;21.30;100732.00;;;;2084136;28;20209;-56
2023/12/03 00:37:12;;;;;;;10.40;8.30;;;;;21.30;100740.00;;;;2070213;28;20297;-55
2023/12/03 00:38:12;;;;;;;10.57;8.33;;;;;21.30;100734.00;;;;2070556;28;20636;-55
2023/12/03 00:39:13;;;;;;;9.23;8.13;;;;;21.30;100729.00;;;;2060264;28;20572;-56
2023/12/03 00:40:13;;;;;;;10.00;7.90;;;;;21.30;100727.00;;;;2070540;28;20592;-57
2023/12/03 00:41:13;;;;;;;9.10;7.70;;;;;21.30;100732.00;;;;2071048;28;20214;-56
2023/12/03 00:42:14;;;;;;;10.80;8.53;;;;;21.30;100728.00;;;;2068998;28;20211;-57
2023/12/03 00:43:14;;;;;;;9.80;8.40;;;;;21.20;100735.00;;;;2070671;28;20242;-57
2023/12/03 00:44:15;;;;;;;9.10;8.03;;;;;21.30;100738.00;;;;2060774;28;20206;-56
2023/12/03 00:45:15;;;;;;;11.53;7.80;;;;;21.30;100737.00;;;;2070443;28;20586;-57
2023/12/03 00:46:21;;;;;;;10.47;8.63;;;;;21.30;100731.00;;;;2070448;28;20568;-54
2023/12/03 00:47:21;;;;;;;13.30;8.63;;;;;21.30;100735.00;;;;2068962;28;20221;-54
2023/12/03 00:48:22;;;;;;;10.73;8.37;;;;;21.30;100744.00;;;;2070985;28;20614;-54
2023/12/03 00:49:22;;;;;;;10.10;8.63;;;;;21.30;100741.00;;;;2060986;28;20935;-54
2023/12/03 00:50:22;;;;;;;11.53;8.00;;;;;21.20;100749.00;;;;2070752;28;20288;-54
2023/12/03 00:51:23;;;;;;;15.70;7.87;;;;;21.20;100745.00;;;;2070165;28;20221;-54
2023/12/03 00:52:23;;;;;;;10.10;8.10;;;;;21.20;100741.00;;;;2070424;28;20309;-54
2023/12/03 00:53:23;;;;;;;9.30;7.73;;;;;21.20;100748.00;;;;2070416;28;20218;-54
2023/12/03 00:54:24;;;;;;;11.30;8.87;;;;;21.20;100741.00;;;;2060198;28;20214;-55
2023/12/03 00:55:24;;;;;;;10.33;7.73;;;;;21.20;100741.00;;;;2071017;28;20228;-56
2023/12/03 00:56:24;;;;;;;10.47;7.63;;;;;21.20;100741.00;;;;2070033;28;20214;-57
2023/12/03 00:57:25;;;;;;;15.37;9.03;;;;;21.20;100741.00;;;;2067662;28;20687;-57
2023/12/03 00:58:25;;;;;;;11.90;8.40;;;;;21.20;100744.00;;;;2069943;28;20705;-57
2023/12/03 00:59:25;;;;;;;10.17;8.47;;;;;21.20;100740.00;;;;2059660;28;20211;-56
2023/12/03 01:00:26;;;;;;;8.70;7.73;;;;;21.20;100741.00;;;;2070107;28;20309;-54
2023/12/03 01:01:26;;;;;;;12.03;7.90;;;;;21.20;100742.00;;;;2069720;28;20218;-55
2023/12/03 01:02:26;;;;;;;10.60;8.80;;;;;21.20;100738.00;;;;2070615;28;20214;-55
2023/12/03 01:03:27;;;;;;;10.17;8.30;;;;;21.20;100741.00;;;;2068645;28;20224;-55
2023/12/03 01:04:27;;;;;;;10.23;8.13;;;;;21.20;100742.00;;;;2059234;28;20321;-55
2023/12/03 01:05:27;;;;;;;9.43;8.23;;;;;21.20;100739.00;;;;2067834;28;20218;-54
2023/12/03 01:06:28;;;;;;;9.60;8.03;;;;;21.20;100750.00;;;;2070175;28;20221;-54
2023/12/03 01:07:28;;;;;;;9.20;7.83;;;;;21.20;100748.00;;;;2068635;28;20225;-55
2023/12/03 01:08:28;;;;;;;9.60;8.30;;;;;21.20;100755.00;;;;2070126;28;20241;-55
2023/12/03 01:09:32;;;;;;;8.50;7.60;;;;;21.10;100754.00;;;;2058271;28;20393;-55
2023/12/03 01:10:32;;;;;;;9.95;7.65;;;;;21.10;100755.00;;;;2066839;28;20214;-54
2023/12/03 01:11:32;;;;;;;10.87;8.23;;;;;21.10;100756.00;;;;2067495;28;20452;-54
2023/12/03 01:12:33;;;;;;;10.17;7.70;;;;;21.10;100761.00;;;;2069118;28;20712;-57
2023/12/03 01:13:33;;;;;;;11.20;7.77;;;;;21.10;100757.00;;;;2070058;28;20222;-58
2023/12/03 01:14:33;;;;;;;10.17;8.50;;;;;21.10;100776.00;;;;2059570;28;20222;-55
2023/12/03 01:15:34;;;;;;;10.80;8.13;;;;;21.10;100772.00;;;;2069310;28;20360;-56
2023/12/03 01:16:34;;;;;;;9.60;7.50;;;;;21.10;100768.00;;;;2069535;28;20234;-57
2023/12/03 01:17:34;;;;;;;10.07;8.13;;;;;21.10;100776.00;;;;2069891;28;20280;-54
2023/12/03 01:18:35;;;;;;;9.20;7.83;;;;;21.10;100770.00;;;;2068507;28;20778;-55
2023/12/03 01:19:35;;;;;;;10.27;7.80;;;;;21.10;100771.00;;;;2060844;28;20699;-54
2023/12/03 01:20:36;;;;;;;12.50;8.30;;;;;21.10;100777.00;;;;2066198;28;20253;-55
2023/12/03 01:21:37;;;;;;;10.05;7.72;;;;;21.10;100770.00;;;;2070606;28;20241;-54
2023/12/03 01:22:37;;;;;;;11.70;9.20;;;;;21.10;100782.00;;;;2068776;28;20210;-55
2023/12/03 01:23:37;;;;;;;9.90;8.03;;;;;21.10;100776.00;;;;2069131;28;20210;-54
2023/12/03 01:24:38;;;;;;;9.43;8.40;;;;;21.10;100774.00;;;;2059648;28;20226;-54
2023/12/03 01:25:38;;;;;;;10.50;8.70;;;;;21.10;100771.00;;;;2069816;28;20219;-54
2023/12/03 01:26:38;;;;;;;11.10;8.90;;;;;21.10;100776.00;;;;2070455;28;20337;-55
2023/12/03 01:27:38;;;;;;;11.20;8.53;;;;;21.10;100779.00;;;;2068957;28;20214;-55
2023/12/03 01:28:39;;;;;;;11.43;8.30;;;;;21.10;100806.00;;;;2070316;28;20268;-54
2023/12/03 01:29:39;;;;;;;10.57;8.50;;;;;21.10;100784.00;;;;2058186;28;20713;-54
2023/12/03 01:30:40;;;;;;;11.73;9.53;;;;;21.00;100785.00;;;;2067657;28;20683;-54
2023/12/03 01:31:40;;;;;;;12.93;8.03;;;;;21.00;100787.00;;;;2068541;28;20339;-54
2023/12/03 01:32:41;;;;;;;10.60;8.00;;;;;21.00;100791.00;;;;2069881;28;20210;-55
2023/12/03 01:33:41;;;;;;;11.90;9.07;;;;;21.00;100784.00;;;;2066313;28;20206;-54
2023/12/03 01:34:42;;;;;;;10.23;8.00;;;;;21.00;100787.00;;;;2063675;28;20646;-55
2023/12/03 01:35:42;;;;;;;14.40;8.47;;;;;21.00;100778.00;;;;2077766;28;20205;-55
2023/12/03 01:36:42;;;;;;;9.30;7.40;;;;;21.00;100785.00;;;;2073452;28;20246;-55
2023/12/03 01:37:43;;;;;;;10.50;8.47;;;;;21.00;100779.00;;;;2068065;28;20203;-55
2023/12/03 01:38:43;;;;;;;11.90;8.67;;;;;21.00;100782.00;;;;2069806;28;20221;-55
2023/12/03 01:39:43;;;;;;;10.40;7.83;;;;;21.00;100804.00;;;;2057026;28;20749;-55
2023/12/03 01:40:53;;;;;;;11.87;9.03;;;;;21.00;100789.00;;;;2067252;28;20627;-54
2023/12/03 01:41:53;;;;;;;10.57;8.20;;;;;21.00;100778.00;;;;2069600;28;20210;-55
2023/12/03 01:42:54;;;;;;;10.73;8.93;;;;;21.00;100787.00;;;;2070565;28;20290;-53
2023/12/03 01:43:54;;;;;;;11.50;8.20;;;;;21.00;100788.00;;;;2070148;28;20210;-54
2023/12/03 01:44:54;;;;;;;12.90;8.77;;;;;21.00;100783.00;;;;2059193;28;20214;-54
2023/12/03 01:45:55;;;;;;;10.67;8.70;;;;;21.00;100783.00;;;;2067723;28;20576;-55
2023/12/03 01:46:57;;;;;;;10.97;8.53;;;;;21.00;100790.00;;;;2068181;28;20218;-54
2023/12/03 01:47:57;;;;;;;10.85;8.82;;;;;21.00;100782.00;;;;2068711;28;20313;-54
2023/12/03 01:48:58;;;;;;;10.43;8.40;;;;;21.00;100789.00;;;;2060804;28;20214;-53
2023/12/03 01:50:05;;;;;;;10.30;8.60;;;;;21.00;100785.00;;;;2050115;28;20294;-53
2023/12/03 01:51:06;;;;;;;9.70;8.45;;;;;21.00;100785.00;;;;2062380;28;20242;-55
2023/12/03 01:52:06;;;;;;;12.53;8.60;;;;;20.20;100796.00;;;;2069761;28;20245;-55
2023/12/03 01:53:07;;;;;;;11.87;8.07;;;;;21.00;100788.00;;;;2067449;28;20211;-54
2023/12/03 01:54:07;;;;;;;10.63;8.80;;;;;21.00;100791.00;;;;2069007;28;20218;-54
2023/12/03 01:55:08;;;;;;;11.57;8.67;;;;;20.90;100796.00;;;;2051864;28;20223;-55
2023/12/03 01:56:09;;;;;;;9.43;8.13;;;;;20.90;100793.00;;;;2043449;28;20220;-54
2023/12/03 01:57:10;;;;;;;10.52;9.00;;;;;20.90;100795.00;;;;2050671;28;20697;-55
2023/12/03 01:58:10;;;;;;;9.40;7.87;;;;;20.90;100790.00;;;;2069425;28;20237;-54
2023/12/03 01:59:10;;;;;;;9.20;8.13;;;;;20.90;100794.00;;;;2061591;28;20264;-53
2023/12/03 02:00:11;;;;;;;12.60;8.83;;;;;21.00;100792.00;;;;2068053;28;20269;-54
2023/12/03 02:01:11;;;;;;;9.27;7.50;;;;;20.90;100799.00;;;;2069571;28;20211;-54
2023/12/03 02:02:12;;;;;;;9.60;7.90;;;;;20.90;100803.00;;;;2070428;28;20225;-55
2023/12/03 02:03:12;;;;;;;10.27;8.53;;;;;20.90;100793.00;;;;2069957;28;20245;-54
2023/12/03 02:04:12;;;;;;;10.90;9.07;;;;;20.90;100793.00;;;;2073737;28;20216;-55
2023/12/03 02:05:13;;;;;;;10.60;8.27;;;;;20.90;100795.00;;;;2085779;28;20307;-55
2023/12/03 02:06:13;;;;;;;10.93;8.87;;;;;20.90;100796.00;;;;2069567;28;20264;-53
2023/12/03 02:07:14;;;;;;;10.57;8.10;;;;;20.90;100794.00;;;;2070227;28;20214;-55
2023/12/03 02:08:14;;;;;;;11.30;9.50;;;;;20.90;100802.00;;;;2067901;28;20214;-55
2023/12/03 02:09:16;;;;;;;9.50;7.83;;;;;20.90;100797.00;;;;2056562;28;20222;-55
2023/12/03 02:10:16;;;;;;;11.75;8.75;;;;;20.90;100797.00;;;;2069841;28;20214;-54
2023/12/03 02:11:17;;;;;;;11.43;8.70;;;;;20.90;100801.00;;;;2068798;28;20692;-54
2023/12/03 02:12:17;;;;;;;11.43;8.40;;;;;20.90;100802.00;;;;2061424;28;20222;-55
2023/12/03 02:13:17;;;;;;;12.60;9.37;;;;;20.90;100805.00;;;;2066095;28;20214;-53
2023/12/03 02:14:18;;;;;;;11.13;9.00;;;;;20.90;100802.00;;;;2060359;28;20234;-54
2023/12/03 02:15:18;;;;;;;10.70;9.13;;;;;20.90;100811.00;;;;2069827;28;20224;-54
2023/12/03 02:16:18;;;;;;;12.57;9.40;;;;;20.90;100805.00;;;;2067194;28;20226;-53
2023/12/03 02:17:19;;;;;;;10.50;8.63;;;;;20.80;100806.00;;;;2069271;28;20245;-53
2023/12/03 02:18:19;;;;;;;11.83;9.33;;;;;20.90;100810.00;;;;2069352;28;20223;-53
2023/12/03 02:19:19;;;;;;;11.73;8.90;;;;;20.90;100804.00;;;;2060709;28;20214;-54
2023/12/03 02:20:20;;;;;;;11.00;9.23;;;;;20.80;100813.00;;;;2069333;28;20214;-54
2023/12/03 02:21:20;;;;;;;10.10;8.60;;;;;20.80;100807.00;;;;2070175;28;20214;-54
2023/12/03 02:22:20;;;;;;;10.87;9.00;;;;;20.80;100813.00;;;;2069348;28;20321;-54
2023/12/03 02:23:21;;;;;;;11.03;9.10;;;;;20.80;100811.00;;;;2069609;28;20263;-54
2023/12/03 02:24:21;;;;;;;12.53;10.40;;;;;20.80;100814.00;;;;2060242;28;20226;-54
2023/12/03 02:25:21;;;;;;;11.30;8.70;;;;;20.80;100824.00;;;;2064864;28;20826;-53
2023/12/03 02:26:21;;;;;;;12.87;10.10;;;;;20.80;100817.00;;;;2069249;28;20765;-54
2023/12/03 02:27:22;;;;;;;10.40;9.17;;;;;20.80;100825.00;;;;2065758;28;20217;-53
2023/12/03 02:28:22;;;;;;;10.20;8.77;;;;;20.80;100830.00;;;;2070427;28;20714;-53
2023/12/03 02:29:22;;;;;;;9.80;8.13;;;;;20.80;100820.00;;;;2060329;28;20757;-54
2023/12/03 02:30:23;;;;;;;12.17;9.27;;;;;20.80;100817.00;;;;2062557;28;20214;-54
2023/12/03 02:31:24;;;;;;;10.70;8.87;;;;;20.80;100823.00;;;;2069600;28;20249;-53
2023/12/03 02:32:24;;;;;;;11.57;9.60;;;;;20.80;100817.00;;;;2067584;28;20211;-53
2023/12/03 02:33:24;;;;;;;11.43;8.40;;;;;20.80;100826.00;;;;2069917;28;20237;-54
2023/12/03 02:34:24;;;;;;;11.57;9.33;;;;;20.80;100813.00;;;;2059345;28;20218;-53
2023/12/03 02:35:25;;;;;;;12.07;9.13;;;;;20.80;100815.00;;;;2071650;28;20218;-53
2023/12/03 02:36:26;;;;;;;11.03;9.43;;;;;20.70;100821.00;;;;2077706;28;20223;-53
2023/12/03 02:37:26;;;;;;;11.45;9.45;;;;;20.70;100818.00;;;;2063991;28;20213;-54
2023/12/03 02:38:26;;;;;;;11.27;8.00;;;;;20.70;100817.00;;;;2069504;28;20234;-54
2023/12/03 02:39:27;;;;;;;11.20;9.27;;;;;20.70;100821.00;;;;2062053;28;20232;-54
2023/12/03 02:40:32;;;;;;;10.30;8.37;;;;;20.70;100818.00;;;;2077580;28;20225;-54
2023/12/03 02:41:32;;;;;;;11.48;9.15;;;;;20.80;100822.00;;;;2074965;28;20218;-55
2023/12/03 02:42:32;;;;;;;9.53;8.40;;;;;20.80;100824.00;;;;2068653;28;20218;-54
2023/12/03 02:43:33;;;;;;;13.03;8.87;;;;;20.70;100820.00;;;;2070205;28;20210;-54
2023/12/03 02:44:33;;;;;;;11.47;9.50;;;;;20.70;100832.00;;;;2060663;28;20420;-54
2023/12/03 02:45:33;;;;;;;11.00;9.07;;;;;20.70;100817.00;;;;2070409;28;20217;-54
2023/12/03 02:46:34;;;;;;;11.67;10.03;;;;;20.70;100821.00;;;;2074639;28;20261;-55
2023/12/03 02:47:34;;;;;;;11.77;8.77;;;;;20.70;100826.00;;;;2067290;28;20358;-54
2023/12/03 02:48:34;;;;;;;10.50;8.93;;;;;20.70;100819.00;;;;2069092;28;20218;-54
2023/12/03 02:49:35;;;;;;;11.10;8.93;;;;;20.70;100820.00;;;;2062478;28;20236;-55
2023/12/03 02:50:35;;;;;;;10.93;8.27;;;;;20.70;100825.00;;;;2077152;28;20236;-55
2023/12/03 02:51:35;;;;;;;11.90;8.83;;;;;20.70;100821.00;;;;2073648;28;20337;-54
2023/12/03 02:52:36;;;;;;;12.10;8.83;;;;;20.70;100819.00;;;;2069888;28;20218;-53
2023/12/03 02:53:37;;;;;;;11.27;8.83;;;;;20.70;100823.00;;;;2069761;28;20259;-55
2023/12/03 02:54:40;;;;;;;12.02;8.77;;;;;20.70;100819.00;;;;2066200;28;20227;-54
2023/12/03 02:55:40;;;;;;;11.38;8.77;;;;;20.70;100819.00;;;;2085488;28;20215;-53
2023/12/03 02:56:42;;;;;;;10.97;8.53;;;;;20.70;100815.00;;;;2077210;28;20225;-54
2023/12/03 02:57:42;;;;;;;13.38;9.73;;;;;20.60;100828.00;;;;2069096;28;20213;-54
2023/12/03 02:58:43;;;;;;;12.10;9.10;;;;;20.70;100814.00;;;;2068337;28;20694;-58
2023/12/03 02:59:43;;;;;;;12.63;10.10;;;;;20.60;100821.00;;;;2059105;28;20229;-55
2023/12/03 03:00:43;;;;;;;11.37;9.77;;;;;20.70;100817.00;;;;2077053;28;20221;-55
2023/12/03 03:01:44;;;;;;;12.17;9.07;;;;;20.60;100810.00;;;;2072000;28;20214;-54
2023/12/03 03:02:44;;;;;;;11.70;9.17;;;;;20.60;100813.00;;;;2069843;28;20221;-54
2023/12/03 03:03:45;;;;;;;11.73;9.53;;;;;20.70;100809.00;;;;2069316;28;20218;-55
2023/12/03 03:04:45;;;;;;;12.80;9.60;;;;;20.60;100805.00;;;;2068498;28;20232;-54
2023/12/03 03:05:45;;;;;;;10.73;9.00;;;;;20.60;100814.00;;;;2085617;28;20335;-54
2023/12/03 03:06:46;;;;;;;11.83;9.50;;;;;20.60;100807.00;;;;2073021;28;20218;-54
2023/12/03 03:07:46;;;;;;;13.53;9.73;;;;;20.60;100817.00;;;;2068602;28;20221;-54
2023/12/03 03:08:46;;;;;;;10.77;8.83;;;;;20.60;100817.00;;;;2068426;28;20265;-54
2023/12/03 03:09:47;;;;;;;11.00;8.90;;;;;20.60;100818.00;;;;2069162;28;20236;-55
2023/12/03 03:10:47;;;;;;;10.50;8.60;;;;;20.60;100817.00;;;;2084824;28;20213;-53
2023/12/03 03:11:47;;;;;;;11.30;8.40;;;;;20.60;100819.00;;;;2076049;28;20210;-55
2023/12/03 03:12:48;;;;;;;13.00;8.40;;;;;20.60;100815.00;;;;2069691;28;20220;-54
2023/12/03 03:13:48;;;;;;;11.90;8.80;;;;;20.60;100824.00;;;;2068382;28;20214;-54
2023/12/03 03:14:48;;;;;;;13.63;9.00;;;;;20.60;100816.00;;;;2064129;28;20312;-55
2023/12/03 03:15:49;;;;;;;9.97;8.27;;;;;20.60;100825.00;;;;2073014;28;20706;-53
2023/12/03 03:16:49;;;;;;;10.90;8.80;;;;;20.60;100821.00;;;;2069430;28;20206;-53
2023/12/03 03:17:50;;;;;;;11.03;8.60;;;;;20.60;100825.00;;;;2067702;28;20226;-54
2023/12/03 03:18:50;;;;;;;11.43;8.43;;;;;20.60;100820.00;;;;2067614;28;20224;-55
2023/12/03 03:19:50;;;;;;;9.70;8.00;;;;;20.60;100820.00;;;;2059874;28;20695;-55
2023/12/03 03:20:51;;;;;;;10.03;8.87;;;;;20.60;100815.00;;;;2068981;28;20249;-54
2023/12/03 03:21:51;;;;;;;11.40;9.03;;;;;20.60;100816.00;;;;2067421;28;20214;-54
2023/12/03 03:22:52;;;;;;;13.00;9.77;;;;;20.60;100826.00;;;;2066778;28;20221;-54
2023/12/03 03:23:52;;;;;;;12.03;8.80;;;;;20.60;100823.00;;;;2065959;28;20234;-53
2023/12/03 03:24:52;;;;;;;11.43;8.93;;;;;20.60;100824.00;;;;2064332;28;20339;-54
2023/12/03 03:25:53;;;;;;;11.40;9.30;;;;;20.60;100826.00;;;;2073693;28;20773;-53
2023/12/03 03:26:53;;;;;;;11.23;8.70;;;;;20.50;100825.00;;;;2070573;28;20210;-54
2023/12/03 03:27:53;;;;;;;12.00;9.33;;;;;20.60;100617.00;;;;2063404;28;20333;-54
2023/12/03 03:28:54;;;;;;;11.17;8.83;;;;;20.50;100818.00;;;;2069681;28;20209;-54
2023/12/03 03:29:54;;;;;;;12.30;8.20;;;;;20.60;100817.00;;;;2061689;28;20214;-53
2023/12/03 03:30:54;;;;;;;10.97;9.13;;;;;20.50;100829.00;;;;2074408;28;20269;-55
2023/12/03 03:31:55;;;;;;;11.33;9.50;;;;;20.60;100824.00;;;;2071618;28;20218;-54
2023/12/03 03:32:55;;;;;;;13.50;10.27;;;;;20.50;100831.00;;;;2063958;28;20214;-54
2023/12/03 03:33:55;;;;;;;10.50;8.47;;;;;20.50;100835.00;;;;2066814;28;20265;-54
2023/12/03 03:34:55;;;;;;;10.67;8.90;;;;;20.50;100839.00;;;;2054348;28;20209;-55
2023/12/03 03:35:56;;;;;;;12.10;8.93;;;;;20.50;100846.00;;;;2065901;28;20225;-54
2023/12/03 03:36:56;;;;;;;11.47;9.43;;;;;20.50;100844.00;;;;2068820;28;20245;-54
2023/12/03 03:37:56;;;;;;;10.90;8.70;;;;;20.50;100852.00;;;;2063206;28;20218;-55
2023/12/03 03:38:57;;;;;;;12.17;9.20;;;;;20.50;100848.00;;;;2069505;28;20217;-54
2023/12/03 03:39:57;;;;;;;11.20;8.90;;;;;20.50;100836.00;;;;2059506;28;20238;-54
2023/12/03 03:40:58;;;;;;;13.97;10.07;;;;;20.50;100847.00;;;;2068799;28;20225;-54
2023/12/03 03:41:58;;;;;;;10.93;9.47;;;;;20.50;100843.00;;;;2068072;28;20215;-54
2023/12/03 03:42:58;;;;;;;10.90;9.30;;;;;20.50;100850.00;;;;2066096;28;20228;-53
2023/12/03 03:43:59;;;;;;;11.23;8.93;;;;;20.50;100849.00;;;;2066635;28;20221;-54
2023/12/03 03:44:59;;;;;;;11.20;8.97;;;;;20.50;100837.00;;;;2059719;28;20627;-53
2023/12/03 03:46:00;;;;;;;12.77;9.53;;;;;20.50;100844.00;;;;2069648;28;20635;-54
2023/12/03 03:47:00;;;;;;;10.77;9.60;;;;;20.50;100846.00;;;;2061565;28;20351;-54
2023/12/03 03:48:00;;;;;;;10.87;9.20;;;;;20.50;100834.00;;;;2066301;28;20468;-54
2023/12/03 03:49:01;;;;;;;10.50;8.73;;;;;20.50;100836.00;;;;2068836;28;20279;-53
2023/12/03 03:50:03;;;;;;;11.90;9.50;;;;;20.50;100839.00;;;;2059844;28;20214;-54
2023/12/03 03:51:07;;;;;;;10.15;8.60;;;;;20.50;100393.00;;;;2069366;28;20264;-54
2023/12/03 03:52:07;;;;;;;10.57;9.05;;;;;20.50;100837.00;;;;2069272;28;20217;-54
2023/12/03 03:53:08;;;;;;;11.13;9.43;;;;;20.50;100843.00;;;;2068059;28;20232;-55
2023/12/03 03:54:08;;;;;;;11.47;9.10;;;;;20.40;100845.00;;;;2068785;28;20221;-54
2023/12/03 03:55:08;;;;;;;10.67;8.13;;;;;20.40;100844.00;;;;2058869;28;20218;-54
2023/12/03 03:56:10;;;;;;;10.50;8.77;;;;;20.40;100844.00;;;;2069075;28;20268;-54
2023/12/03 03:57:10;;;;;;;11.73;9.18;;;;;20.50;100836.00;;;;2069423;28;20221;-54
2023/12/03 03:58:11;;;;;;;12.53;9.53;;;;;20.40;100839.00;;;;2068410;28;20217;-55
2023/12/03 03:59:11;;;;;;;13.17;8.90;;;;;20.40;100604.00;;;;2064014;28;20305;-54
2023/12/03 04:00:12;;;;;;;12.10;8.57;;;;;20.40;100847.00;;;;2066363;28;20225;-53
2023/12/03 04:01:12;;;;;;;12.63;9.30;;;;;20.40;100847.00;;;;2065157;28;20237;-54
2023/12/03 04:02:13;;;;;;;11.23;9.43;;;;;20.40;100844.00;;;;2066352;28;20245;-55
2023/12/03 04:03:13;;;;;;;11.70;9.83;;;;;20.40;100847.00;;;;2068886;28;20213;-55
2023/12/03 04:04:13;;;;;;;10.57;8.60;;;;;20.40;100878.00;;;;2059415;28;20277;-54
2023/12/03 04:05:14;;;;;;;12.17;9.20;;;;;20.40;100845.00;;;;2067018;28;20548;-55
2023/12/03 04:06:14;;;;;;;10.83;9.07;;;;;20.40;100849.00;;;;2067786;28;20572;-55
2023/12/03 04:07:14;;;;;;;12.10;9.40;;;;;20.40;100851.00;;;;2068295;28;20217;-55
2023/12/03 04:08:15;;;;;;;11.53;8.87;;;;;20.40;100847.00;;;;2066963;28;20245;-54
2023/12/03 04:09:15;;;;;;;10.43;8.27;;;;;20.40;100852.00;;;;2052270;28;20211;-54
2023/12/03 04:10:15;;;;;;;10.23;8.47;;;;;20.40;100848.00;;;;2067871;28;20218;-54
2023/12/03 04:11:16;;;;;;;10.27;8.37;;;;;19.60;100856.00;;;;2066968;28;20214;-54
2023/12/03 04:12:16;;;;;;;10.50;8.30;;;;;20.40;100855.00;;;;2069291;28;20214;-53
2023/12/03 04:13:16;;;;;;;11.30;9.00;;;;;20.40;100854.00;;;;2064222;28;20214;-54
2023/12/03 04:14:18;;;;;;;11.57;8.53;;;;;20.40;100856.00;;;;2059594;28;20592;-54
2023/12/03 04:15:19;;;;;;;9.27;8.00;;;;;20.40;100859.00;;;;2062646;28;20224;-53
2023/12/03 04:16:23;;;;;;;11.13;8.40;;;;;20.40;100859.00;;;;2062743;28;20230;-53
2023/12/03 04:17:24;;;;;;;9.40;7.97;;;;;20.40;100856.00;;;;2067270;28;20214;-53
2023/12/03 04:18:24;;;;;;;10.97;9.10;;;;;20.40;100892.00;;;;2067096;28;20206;-53
2023/12/03 04:19:25;;;;;;;10.87;8.57;;;;;20.40;100866.00;;;;2060040;28;20297;-54
2023/12/03 04:20:25;;;;;;;8.70;7.80;;;;;20.40;100861.00;;;;2067773;28;20225;-54
2023/12/03 04:21:26;;;;;;;10.13;8.10;;;;;20.30;100805.00;;;;2062421;28;20215;-54
2023/12/03 04:22:26;;;;;;;10.50;8.20;;;;;20.30;100865.00;;;;2065600;28;20290;-54
2023/12/03 04:23:26;;;;;;;10.37;8.00;;;;;20.40;100867.00;;;;2069138;28;20218;-54
2023/12/03 04:24:27;;;;;;;9.53;7.93;;;;;20.40;100867.00;;;;2060039;28;20292;-53
2023/12/03 04:25:28;;;;;;;11.27;8.67;;;;;20.30;100865.00;;;;2068761;28;20222;-54
2023/12/03 04:26:28;;;;;;;11.10;7.83;;;;;20.30;100847.00;;;;2068994;28;20218;-54
2023/12/03 04:27:28;;;;;;;9.40;8.07;;;;;20.40;100867.00;;;;2066921;28;21427;-53
2023/12/03 04:28:29;;;;;;;9.80;7.83;;;;;20.30;100862.00;;;;2068195;28;20244;-54
2023/12/03 04:29:29;;;;;;;10.17;8.17;;;;;20.30;100855.00;;;;2058770;28;20222;-54
2023/12/03 04:30:29;;;;;;;10.67;8.30;;;;;20.30;100868.00;;;;2069218;28;20277;-53
2023/12/03 04:31:30;;;;;;;9.40;8.13;;;;;20.30;100860.00;;;;2069007;28;20214;-55
2023/12/03 04:32:30;;;;;;;9.20;7.40;;;;;20.30;100864.00;;;;2066254;28;20218;-53
2023/12/03 04:33:30;;;;;;;9.20;8.00;;;;;20.30;100858.00;;;;2068838;28;20233;-54
2023/12/03 04:34:31;;;;;;;12.13;9.00;;;;;20.30;100861.00;;;;2058987;28;20237;-54
2023/12/03 04:35:31;;;;;;;10.13;7.63;;;;;20.30;100633.00;;;;2069285;28;20202;-54
2023/12/03 04:36:31;;;;;;;9.40;7.43;;;;;20.30;100855.00;;;;2069167;28;20586;-53
2023/12/03 04:37:32;;;;;;;10.00;8.40;;;;;20.30;100860.00;;;;2057448;28;20214;-55
2023/12/03 04:38:32;;;;;;;9.60;7.50;;;;;20.30;100858.00;;;;2076479;28;20240;-53
2023/12/03 04:39:32;;;;;;;9.97;8.00;;;;;20.30;100863.00;;;;2067041;28;20245;-55
2023/12/03 04:40:33;;;;;;;11.03;8.50;;;;;20.30;100859.00;;;;2084824;28;20232;-54
2023/12/03 04:41:34;;;;;;;10.23;7.87;;;;;20.30;100851.00;;;;2076367;28;20297;-54
2023/12/03 04:42:35;;;;;;;9.07;7.43;;;;;20.30;100854.00;;;;2069392;28;20218;-54
2023/12/03 04:43:35;;;;;;;9.38;7.45;;;;;20.30;100868.00;;;;2069064;28;20462;-54
2023/12/03 04:44:36;;;;;;;9.40;8.23;;;;;20.30;100868.00;;;;2058933;28;20218;-53
2023/12/03 04:45:36;;;;;;;9.67;7.40;;;;;20.30;100860.00;;;;2068517;28;20301;-55
2023/12/03 04:46:41;;;;;;;9.00;7.80;;;;;20.30;100854.00;;;;2068052;28;20211;-54
2023/12/03 04:47:41;;;;;;;10.07;7.65;;;;;20.20;100859.00;;;;2066171;28;21922;-54
2023/12/03 04:48:42;;;;;;;11.73;7.33;;;;;20.20;100855.00;;;;2059605;28;20330;-53
2023/12/03 04:49:43;;;;;;;9.20;7.47;;;;;20.20;100851.00;;;;2050421;28;20727;-54
2023/12/03 04:50:43;;;;;;;10.07;7.90;;;;;20.30;100864.00;;;;2066911;28;20215;-54
2023/12/03 04:51:43;;;;;;;9.00;7.57;;;;;20.20;100863.00;;;;2068136;28;20325;-53
2023/12/03 04:52:44;;;;;;;8.73;7.37;;;;;20.20;100855.00;;;;2069294;28;20210;-54
2023/12/03 04:53:44;;;;;;;8.80;7.57;;;;;20.30;100860.00;;;;2068837;28;20217;-54
2023/12/03 04:54:44;;;;;;;7.87;6.83;;;;;20.20;100854.00;;;;2050670;28;20252;-53
2023/12/03 04:55:45;;;;;;;10.07;7.70;;;;;20.20;100855.00;;;;2068632;28;20356;-53
2023/12/03 04:56:45;;;;;;;8.80;7.53;;;;;20.30;100859.00;;;;2069533;28;20306;-54